createdAt,value
2017-12-23T00:01:37.944Z,100.00
2017-12-23T00:04:05.479Z,100.00
2017-12-23T00:06:33.023Z,100.00
2017-12-23T00:09:00.574Z,99.46
2017-12-23T00:11:28.112Z,99.82
2017-12-23T00:13:55.650Z,100.00
2017-12-23T00:16:23.214Z,100.00
2017-12-23T00:18:50.724Z,100.00
2017-12-23T00:21:18.242Z,99.59
2017-12-23T00:23:45.774Z,99.36
2017-12-23T00:26:13.297Z,98.91
2017-12-23T00:28:40.824Z,99.22
2017-12-23T00:31:08.360Z,99.70
2017-12-23T00:33:35.881Z,99.96
2017-12-23T00:36:03.441Z,100.00
2017-12-23T00:38:30.976Z,100.00
2017-12-23T00:40:58.515Z,100.00
2017-12-23T00:43:26.046Z,99.99
2017-12-23T00:45:53.657Z,99.79
2017-12-23T00:48:21.193Z,99.78
2017-12-23T00:50:48.726Z,99.86
2017-12-23T00:53:16.270Z,100.00
2017-12-23T00:55:43.803Z,100.00
2017-12-23T00:58:11.328Z,100.00
2017-12-23T01:00:38.858Z,100.00
2017-12-23T01:03:06.402Z,100.00
2017-12-23T01:05:34.148Z,100.00
2017-12-23T01:08:01.683Z,100.00
2017-12-23T01:10:29.217Z,100.00
2017-12-23T01:12:56.750Z,100.00
2017-12-23T01:15:24.308Z,100.00
2017-12-23T01:17:51.851Z,100.00
2017-12-23T01:20:19.385Z,100.00
2017-12-23T01:22:46.951Z,100.00
2017-12-23T01:25:14.484Z,100.00
2017-12-23T01:27:42.017Z,100.00
2017-12-23T01:30:09.558Z,100.00
2017-12-23T01:32:37.144Z,100.00
2017-12-23T01:35:04.765Z,100.00
2017-12-23T01:37:32.294Z,100.00
2017-12-23T01:39:59.882Z,100.00
2017-12-23T01:42:27.415Z,100.00
2017-12-23T01:44:54.947Z,100.00
2017-12-23T01:47:23.366Z,100.00
2017-12-23T01:49:50.902Z,100.00
2017-12-23T01:52:18.430Z,100.00
2017-12-23T01:54:45.960Z,100.00
2017-12-23T01:57:13.491Z,100.00
2017-12-23T01:59:41.032Z,100.00
2017-12-23T02:02:08.570Z,100.00
2017-12-23T02:04:36.106Z,100.00
2017-12-23T02:07:03.637Z,100.00
2017-12-23T02:09:31.166Z,100.00
2017-12-23T02:11:58.704Z,99.94
2017-12-23T02:14:26.232Z,99.45
2017-12-23T02:16:53.762Z,98.60
2017-12-23T02:19:21.288Z,98.65
2017-12-23T02:21:48.844Z,98.66
2017-12-23T02:24:16.382Z,98.75
2017-12-23T02:26:43.906Z,98.68
2017-12-23T02:29:11.435Z,98.79
2017-12-23T02:31:38.962Z,98.67
2017-12-23T02:34:06.506Z,98.51
2017-12-23T02:36:34.063Z,98.72
2017-12-23T02:39:01.579Z,98.85
2017-12-23T02:41:29.134Z,99.20
2017-12-23T02:43:56.696Z,99.19
2017-12-23T02:46:24.234Z,99.28
2017-12-23T02:48:51.768Z,99.40
2017-12-23T02:51:19.299Z,100.00
2017-12-23T02:53:46.834Z,100.00
2017-12-23T02:56:14.366Z,100.00
2017-12-23T02:58:41.895Z,100.00
2017-12-23T03:01:09.433Z,99.80
2017-12-23T03:03:36.929Z,99.47
2017-12-23T03:06:04.482Z,99.26
2017-12-23T03:08:32.008Z,99.24
2017-12-23T03:10:59.537Z,99.30
2017-12-23T03:13:27.062Z,99.15
2017-12-23T03:15:54.598Z,98.85
2017-12-23T03:18:22.152Z,99.28
2017-12-23T03:20:49.693Z,100.00
2017-12-23T03:23:17.220Z,100.00
2017-12-23T03:25:44.750Z,100.00
2017-12-23T03:28:12.283Z,100.00
2017-12-23T03:30:39.831Z,100.00
2017-12-23T03:33:07.419Z,100.00
2017-12-23T03:35:34.939Z,100.00
2017-12-23T03:38:02.484Z,100.00
2017-12-23T03:40:30.002Z,100.00
2017-12-23T03:42:57.546Z,100.00
2017-12-23T03:45:25.078Z,100.00
2017-12-23T03:47:52.602Z,100.00
2017-12-23T03:50:20.156Z,100.00
2017-12-23T03:52:47.684Z,100.00
2017-12-23T03:55:16.164Z,100.00
2017-12-23T03:57:43.704Z,100.00
2017-12-23T04:00:11.227Z,100.00
2017-12-23T04:02:38.757Z,100.00
2017-12-23T04:05:06.266Z,100.00
2017-12-23T04:07:33.804Z,100.00
2017-12-23T04:10:01.328Z,100.00
2017-12-23T04:12:28.884Z,100.00
2017-12-23T04:14:56.412Z,100.00
2017-12-23T04:17:23.938Z,100.00
2017-12-23T04:19:51.459Z,99.85
2017-12-23T04:22:18.993Z,100.00
2017-12-23T04:24:46.523Z,100.00
2017-12-23T04:27:14.049Z,100.00
2017-12-23T04:29:41.562Z,100.00
2017-12-23T04:32:09.102Z,100.00
2017-12-23T04:34:36.642Z,100.00
2017-12-23T04:37:04.179Z,100.00
2017-12-23T04:39:31.709Z,100.00
2017-12-23T04:41:59.268Z,100.00
2017-12-23T04:44:26.793Z,100.00
2017-12-23T04:46:54.306Z,100.00
2017-12-23T04:49:21.824Z,100.00
2017-12-23T04:51:49.387Z,100.00
2017-12-23T04:54:16.927Z,100.00
2017-12-23T04:56:44.455Z,100.00
2017-12-23T04:59:11.969Z,100.00
2017-12-23T05:01:39.490Z,99.85
2017-12-23T05:04:07.054Z,99.72
2017-12-23T05:06:34.564Z,99.66
2017-12-23T05:09:02.078Z,99.87
2017-12-23T05:11:29.604Z,99.80
2017-12-23T05:13:57.148Z,99.64
2017-12-23T05:16:24.675Z,99.69
2017-12-23T05:18:52.222Z,99.74
2017-12-23T05:21:19.747Z,99.31
2017-12-23T05:23:47.290Z,98.93
2017-12-23T05:26:15.314Z,99.07
2017-12-23T05:28:42.860Z,99.48
2017-12-23T05:31:10.395Z,100.00
2017-12-23T05:33:37.927Z,100.00
2017-12-23T05:36:05.448Z,100.00
2017-12-23T05:38:32.978Z,100.00
2017-12-23T05:41:00.533Z,100.00
2017-12-23T05:43:28.042Z,100.00
2017-12-23T05:45:55.563Z,100.00
2017-12-23T05:48:23.256Z,100.00
2017-12-23T05:50:50.788Z,100.00
2017-12-23T05:53:18.332Z,100.00
2017-12-23T05:55:45.942Z,100.00
2017-12-23T05:58:13.468Z,100.00
2017-12-23T06:00:40.977Z,100.00
2017-12-23T06:03:08.530Z,100.00
2017-12-23T06:05:36.062Z,100.00
2017-12-23T06:08:03.610Z,100.00
2017-12-23T06:10:31.143Z,100.00
2017-12-23T06:12:58.730Z,100.00
2017-12-23T06:15:26.286Z,100.00
2017-12-23T06:17:53.832Z,100.00
2017-12-23T06:20:21.388Z,100.00
2017-12-23T06:22:48.934Z,100.00
2017-12-23T06:25:16.444Z,100.00
2017-12-23T06:27:43.984Z,100.00
2017-12-23T06:30:11.549Z,100.00
2017-12-23T06:32:39.066Z,100.00
2017-12-23T06:35:06.576Z,100.00
2017-12-23T06:37:34.117Z,100.00
2017-12-23T06:40:01.650Z,100.00
2017-12-23T06:42:29.186Z,100.00
2017-12-23T06:44:56.807Z,100.00
2017-12-23T06:47:24.347Z,100.00
2017-12-23T06:49:51.875Z,100.00
2017-12-23T06:52:19.425Z,100.00
2017-12-23T06:54:46.967Z,100.00
2017-12-23T06:57:14.527Z,100.00
2017-12-23T06:59:42.055Z,99.91
2017-12-23T07:02:09.582Z,99.80
2017-12-23T07:04:37.113Z,99.88
2017-12-23T07:07:04.627Z,99.87
2017-12-23T07:09:32.171Z,100.00
2017-12-23T07:11:59.699Z,99.89
2017-12-23T07:14:27.224Z,99.84
2017-12-23T07:16:54.769Z,100.00
2017-12-23T07:19:22.297Z,100.00
2017-12-23T07:21:49.828Z,99.98
2017-12-23T07:24:17.358Z,100.00
2017-12-23T07:26:45.013Z,100.00
2017-12-23T07:29:12.547Z,100.00
2017-12-23T07:31:40.117Z,99.67
2017-12-23T07:34:07.644Z,99.02
2017-12-23T07:36:35.183Z,98.74
2017-12-23T07:39:02.714Z,98.25
2017-12-23T07:41:30.260Z,98.66
2017-12-23T07:43:57.772Z,99.18
2017-12-23T07:46:25.344Z,98.76
2017-12-23T07:48:52.904Z,98.80
2017-12-23T07:51:20.461Z,98.03
2017-12-23T07:53:48.000Z,97.53
2017-12-23T07:56:15.535Z,97.54
2017-12-23T07:58:43.084Z,97.95
2017-12-23T08:01:10.640Z,97.92
2017-12-23T08:03:38.305Z,97.80
2017-12-23T08:06:05.837Z,97.26
2017-12-23T08:08:33.355Z,97.16
2017-12-23T08:11:00.902Z,97.27
2017-12-23T08:13:28.436Z,96.34
2017-12-23T08:15:56.053Z,95.94
2017-12-23T08:18:23.566Z,96.04
2017-12-23T08:20:51.096Z,96.15
2017-12-23T08:23:18.637Z,96.57
2017-12-23T08:25:46.167Z,96.11
2017-12-23T08:28:13.692Z,95.85
2017-12-23T08:30:41.358Z,96.06
2017-12-23T08:33:08.913Z,96.14
2017-12-23T08:35:36.462Z,96.15
2017-12-23T08:38:04.005Z,95.96
2017-12-23T08:40:31.549Z,95.84
2017-12-23T08:42:59.103Z,95.33
2017-12-23T08:45:26.659Z,95.61
2017-12-23T08:47:54.172Z,95.84
2017-12-23T08:50:21.688Z,96.01
2017-12-23T08:52:49.253Z,95.69
2017-12-23T08:55:16.803Z,94.79
2017-12-23T08:57:44.359Z,94.91
2017-12-23T09:00:11.881Z,94.58
2017-12-23T09:02:39.425Z,94.36
2017-12-23T09:05:06.968Z,94.82
2017-12-23T09:07:34.524Z,93.79
2017-12-23T09:10:02.052Z,93.77
2017-12-23T09:12:29.583Z,93.86
2017-12-23T09:14:57.124Z,93.41
2017-12-23T09:17:24.654Z,93.20
2017-12-23T09:19:52.211Z,94.05
2017-12-23T09:22:19.756Z,93.99
2017-12-23T09:24:47.285Z,94.28
2017-12-23T09:27:14.817Z,94.00
2017-12-23T09:29:42.480Z,94.41
2017-12-23T09:32:10.030Z,94.45
2017-12-23T09:34:37.597Z,94.58
2017-12-23T09:37:05.397Z,94.13
2017-12-23T09:39:33.010Z,93.83
2017-12-23T09:42:00.552Z,94.53
2017-12-23T09:44:28.192Z,94.11
2017-12-23T09:46:55.706Z,94.50
2017-12-23T09:49:23.241Z,93.39
2017-12-23T09:51:50.796Z,93.03
2017-12-23T09:54:18.363Z,92.56
2017-12-23T09:56:45.892Z,92.47
2017-12-23T09:59:13.406Z,91.48
2017-12-23T10:01:40.954Z,91.13
2017-12-23T10:04:08.783Z,91.46
2017-12-23T10:06:36.381Z,91.85
2017-12-23T10:09:03.930Z,91.65
2017-12-23T10:11:31.499Z,91.24
2017-12-23T10:13:59.033Z,90.29
2017-12-23T10:16:26.574Z,90.91
2017-12-23T10:18:54.118Z,89.71
2017-12-23T10:21:21.647Z,89.88
2017-12-23T10:23:49.243Z,90.33
2017-12-23T10:26:16.772Z,90.39
2017-12-23T10:28:44.308Z,91.80
2017-12-23T10:31:11.847Z,91.73
2017-12-23T10:33:39.372Z,89.83
2017-12-23T10:36:06.913Z,90.11
2017-12-23T10:38:34.452Z,89.13
2017-12-23T10:41:02.002Z,89.41
2017-12-23T10:43:29.552Z,89.61
2017-12-23T10:45:57.128Z,88.91
2017-12-23T10:48:24.683Z,90.23
2017-12-23T10:50:52.227Z,89.20
2017-12-23T10:53:19.748Z,88.35
2017-12-23T10:55:47.297Z,90.06
2017-12-23T10:58:14.839Z,88.70
2017-12-23T11:00:42.379Z,88.78
2017-12-23T11:03:09.979Z,87.72
2017-12-23T11:05:37.533Z,88.18
2017-12-23T11:08:05.068Z,89.01
2017-12-23T11:10:32.605Z,88.21
2017-12-23T11:13:00.124Z,88.01
2017-12-23T11:15:27.658Z,88.02
2017-12-23T11:17:55.177Z,88.21
2017-12-23T11:20:22.712Z,88.96
2017-12-23T11:22:50.263Z,89.01
2017-12-23T11:25:17.793Z,88.05
2017-12-23T11:27:45.326Z,88.05
2017-12-23T11:30:12.852Z,87.97
2017-12-23T11:32:40.387Z,88.21
2017-12-23T11:35:07.962Z,88.57
2017-12-23T11:37:35.511Z,88.66
2017-12-23T11:40:03.070Z,88.97
2017-12-23T11:42:30.619Z,88.46
2017-12-23T11:44:58.155Z,86.92
2017-12-23T11:47:25.672Z,85.51
2017-12-23T11:49:53.213Z,85.84
2017-12-23T11:52:20.733Z,85.85
2017-12-23T11:54:48.314Z,85.79
2017-12-23T11:57:15.838Z,85.77
2017-12-23T11:59:43.368Z,86.03
2017-12-23T12:02:10.928Z,86.74
2017-12-23T12:04:38.467Z,86.79
2017-12-23T12:07:05.992Z,87.29
2017-12-23T12:09:33.526Z,85.41
2017-12-23T12:12:01.079Z,87.38
2017-12-23T12:14:28.696Z,87.96
2017-12-23T12:16:56.258Z,86.62
2017-12-23T12:19:23.807Z,86.53
2017-12-23T12:21:51.342Z,86.17
2017-12-23T12:24:18.891Z,87.30
2017-12-23T12:26:46.414Z,87.11
2017-12-23T12:29:13.998Z,86.88
2017-12-23T12:31:41.750Z,87.31
2017-12-23T12:34:09.279Z,86.00
2017-12-23T12:36:36.813Z,85.85
2017-12-23T12:39:04.343Z,85.91
2017-12-23T12:41:31.964Z,86.61
2017-12-23T12:43:59.487Z,86.27
2017-12-23T12:46:27.038Z,86.19
2017-12-23T12:48:54.573Z,85.72
2017-12-23T12:51:22.148Z,85.37
2017-12-23T12:53:49.664Z,85.88
2017-12-23T12:56:17.178Z,85.60
2017-12-23T12:58:44.734Z,84.96
2017-12-23T13:01:12.288Z,84.84
2017-12-23T13:03:39.836Z,84.70
2017-12-23T13:06:07.401Z,85.94
2017-12-23T13:08:34.948Z,85.66
2017-12-23T13:11:02.555Z,84.91
2017-12-23T13:13:30.111Z,84.00
2017-12-23T13:15:57.632Z,84.90
2017-12-23T13:18:25.188Z,84.73
2017-12-23T13:20:52.738Z,84.47
2017-12-23T13:23:20.268Z,85.30
2017-12-23T13:25:47.973Z,85.68
2017-12-23T13:28:15.626Z,85.18
2017-12-23T13:30:43.241Z,84.68
2017-12-23T13:33:10.769Z,84.78
2017-12-23T13:35:38.302Z,85.53
2017-12-23T13:38:05.831Z,84.85
2017-12-23T13:40:33.396Z,85.01
2017-12-23T13:43:00.939Z,85.07
2017-12-23T13:45:28.468Z,85.51
2017-12-23T13:47:56.011Z,84.70
2017-12-23T13:50:23.609Z,84.34
2017-12-23T13:52:51.107Z,85.48
2017-12-23T13:55:19.152Z,85.67
2017-12-23T13:57:46.693Z,85.43
2017-12-23T14:00:14.224Z,85.18
2017-12-23T14:02:41.748Z,85.27
2017-12-23T14:05:09.306Z,85.97
2017-12-23T14:07:36.848Z,85.16
2017-12-23T14:10:04.393Z,85.11
2017-12-23T14:12:31.917Z,85.56
2017-12-23T14:14:59.454Z,85.82
2017-12-23T14:17:26.978Z,85.72
2017-12-23T14:19:54.509Z,85.75
2017-12-23T14:22:22.043Z,84.78
2017-12-23T14:24:49.591Z,84.36
2017-12-23T14:27:17.157Z,84.74
2017-12-23T14:29:44.799Z,85.31
2017-12-23T14:32:12.386Z,85.15
2017-12-23T14:34:39.930Z,84.95
2017-12-23T14:37:07.470Z,84.85
2017-12-23T14:39:35.021Z,84.42
2017-12-23T14:42:02.568Z,85.03
2017-12-23T14:44:30.102Z,84.77
2017-12-23T14:46:57.652Z,85.00
2017-12-23T14:49:25.201Z,85.09
2017-12-23T14:51:52.741Z,85.87
2017-12-23T14:54:20.876Z,85.02
2017-12-23T14:56:48.436Z,84.90
2017-12-23T14:59:15.966Z,84.79
2017-12-23T15:01:43.497Z,84.89
2017-12-23T15:04:11.053Z,85.30
2017-12-23T15:06:38.612Z,84.90
2017-12-23T15:09:06.137Z,85.13
2017-12-23T15:11:33.696Z,85.27
2017-12-23T15:14:01.227Z,84.96
2017-12-23T15:16:28.792Z,85.36
2017-12-23T15:18:56.317Z,85.18
2017-12-23T15:21:23.838Z,85.56
2017-12-23T15:23:51.364Z,86.14
2017-12-23T15:26:18.881Z,85.80
2017-12-23T15:28:46.424Z,85.39
2017-12-23T15:31:13.953Z,85.58
2017-12-23T15:33:41.477Z,85.16
2017-12-23T15:36:09.058Z,85.73
2017-12-23T15:38:36.625Z,85.92
2017-12-23T15:41:04.171Z,86.47
2017-12-23T15:43:31.702Z,86.15
2017-12-23T15:45:59.241Z,85.94
2017-12-23T15:48:26.794Z,85.84
2017-12-23T15:50:54.316Z,85.43
2017-12-23T15:53:21.881Z,86.22
2017-12-23T15:55:49.428Z,85.73
2017-12-23T15:58:16.956Z,86.61
2017-12-23T16:00:44.493Z,86.57
2017-12-23T16:03:12.088Z,85.93
2017-12-23T16:05:39.622Z,86.18
2017-12-23T16:08:07.195Z,85.74
2017-12-23T16:10:34.808Z,86.21
2017-12-23T16:13:02.390Z,86.16
2017-12-23T16:15:29.930Z,85.83
2017-12-23T16:17:57.463Z,86.14
2017-12-23T16:20:24.983Z,85.87
2017-12-23T16:22:52.510Z,84.98
2017-12-23T16:25:20.058Z,84.93
2017-12-23T16:27:47.587Z,84.94
2017-12-23T16:30:15.117Z,84.91
2017-12-23T16:32:42.662Z,84.51
2017-12-23T16:35:10.240Z,84.96
2017-12-23T16:37:37.783Z,84.19
2017-12-23T16:40:05.328Z,84.57
2017-12-23T16:42:32.856Z,84.65
2017-12-23T16:45:00.388Z,84.96
2017-12-23T16:47:27.926Z,84.58
2017-12-23T16:49:55.489Z,85.02
2017-12-23T16:52:23.030Z,85.16
2017-12-23T16:54:50.554Z,85.34
2017-12-23T16:57:18.077Z,85.54
2017-12-23T16:59:45.608Z,86.20
2017-12-23T17:02:13.157Z,86.45
2017-12-23T17:04:40.702Z,86.30
2017-12-23T17:07:08.243Z,85.92
2017-12-23T17:09:35.802Z,85.54
2017-12-23T17:12:03.348Z,85.59
2017-12-23T17:14:30.881Z,85.33
2017-12-23T17:16:58.422Z,85.58
2017-12-23T17:19:25.968Z,86.50
2017-12-23T17:21:53.511Z,86.07
2017-12-23T17:24:21.063Z,86.50
2017-12-23T17:26:48.602Z,86.20
2017-12-23T17:29:28.147Z,86.64
2017-12-23T17:31:55.923Z,87.29
2017-12-23T17:34:23.443Z,86.41
2017-12-23T17:36:50.984Z,86.24
2017-12-23T17:39:18.513Z,85.74
2017-12-23T17:41:46.044Z,86.09
2017-12-23T17:44:13.630Z,86.44
2017-12-23T17:46:41.268Z,87.43
2017-12-23T17:49:08.836Z,86.70
2017-12-23T17:51:36.348Z,86.66
2017-12-23T17:54:03.892Z,86.80
2017-12-23T17:56:31.465Z,87.15
2017-12-23T17:58:59.050Z,87.42
2017-12-23T18:01:26.688Z,87.00
2017-12-23T18:03:54.206Z,87.14
2017-12-23T18:06:21.733Z,86.84
2017-12-23T18:08:49.271Z,87.07
2017-12-23T18:11:16.834Z,86.00
2017-12-23T18:13:44.392Z,85.82
2017-12-23T18:16:11.919Z,85.97
2017-12-23T18:18:39.457Z,86.07
2017-12-23T18:21:07.003Z,86.40
2017-12-23T18:23:34.577Z,86.16
2017-12-23T18:26:02.118Z,86.27
2017-12-23T18:28:29.668Z,86.27
2017-12-23T18:30:57.193Z,85.80
2017-12-23T18:33:24.779Z,85.44
2017-12-23T18:35:52.312Z,85.75
2017-12-23T18:38:19.872Z,85.83
2017-12-23T18:40:47.398Z,86.19
2017-12-23T18:43:14.920Z,86.47
2017-12-23T18:45:42.551Z,86.33
2017-12-23T18:48:10.077Z,85.71
2017-12-23T18:50:37.624Z,85.23
2017-12-23T18:53:05.308Z,85.18
2017-12-23T18:55:32.859Z,85.33
2017-12-23T18:58:00.514Z,85.67
2017-12-23T19:00:28.084Z,85.71
2017-12-23T19:02:55.631Z,85.32
2017-12-23T19:05:23.178Z,85.68
2017-12-23T19:07:50.742Z,85.11
2017-12-23T19:10:18.348Z,84.62
2017-12-23T19:12:45.881Z,85.13
2017-12-23T19:15:13.437Z,84.66
2017-12-23T19:17:40.961Z,85.41
2017-12-23T19:20:08.488Z,84.82
2017-12-23T19:22:36.068Z,84.52
2017-12-23T19:25:03.601Z,84.67
2017-12-23T19:27:31.162Z,85.09
2017-12-23T19:29:58.702Z,83.91
2017-12-23T19:32:26.358Z,83.88
2017-12-23T19:34:53.893Z,84.57
2017-12-23T19:37:21.553Z,84.75
2017-12-23T19:39:49.101Z,84.60
2017-12-23T19:42:16.646Z,84.86
2017-12-23T19:44:44.188Z,84.89
2017-12-23T19:47:11.752Z,85.02
2017-12-23T19:49:39.268Z,84.51
2017-12-23T19:52:06.837Z,84.87
2017-12-23T19:54:34.398Z,84.30
2017-12-23T19:57:02.005Z,85.28
2017-12-23T19:59:29.551Z,84.72
2017-12-23T20:01:57.084Z,85.00
2017-12-23T20:04:24.688Z,84.28
2017-12-23T20:06:52.505Z,84.29
2017-12-23T20:09:20.158Z,84.19
2017-12-23T20:11:47.728Z,84.24
2017-12-23T20:14:15.417Z,84.27
2017-12-23T20:16:42.944Z,84.12
2017-12-23T20:19:10.488Z,84.32
2017-12-23T20:21:38.032Z,84.41
2017-12-23T20:24:05.583Z,84.42
2017-12-23T20:26:33.114Z,84.27
2017-12-23T20:29:00.699Z,84.01
2017-12-23T20:31:28.263Z,84.44
2017-12-23T20:33:55.788Z,83.85
2017-12-23T20:36:23.387Z,84.16
2017-12-23T20:38:50.917Z,84.21
2017-12-23T20:41:18.519Z,84.32
2017-12-23T20:43:46.065Z,84.53
2017-12-23T20:46:13.674Z,84.06
2017-12-23T20:48:41.223Z,83.73
2017-12-23T20:51:08.770Z,84.42
2017-12-23T20:53:36.357Z,83.84
2017-12-23T20:56:03.935Z,83.37
2017-12-23T20:58:31.504Z,83.50
2017-12-23T21:00:59.038Z,84.02
2017-12-23T21:03:26.633Z,83.64
2017-12-23T21:05:54.215Z,82.90
2017-12-23T21:08:21.807Z,82.91
2017-12-23T21:10:49.512Z,82.71
2017-12-23T21:13:17.068Z,82.49
2017-12-23T21:15:44.664Z,82.95
2017-12-23T21:18:12.243Z,83.00
2017-12-23T21:20:40.007Z,82.68
2017-12-23T21:23:07.679Z,83.24
2017-12-23T21:25:35.384Z,84.19
2017-12-23T21:28:02.938Z,83.75
2017-12-23T21:30:30.589Z,83.99
2017-12-23T21:32:58.164Z,83.50
2017-12-23T21:35:25.705Z,84.76
2017-12-23T21:37:53.347Z,84.74
2017-12-23T21:40:20.938Z,84.56
2017-12-23T21:42:48.477Z,83.56
2017-12-23T21:45:16.033Z,83.60
2017-12-23T21:47:43.628Z,84.27
2017-12-23T21:50:11.222Z,84.04
2017-12-23T21:52:38.828Z,83.82
2017-12-23T21:55:06.524Z,83.29
2017-12-23T21:57:34.093Z,83.69
2017-12-23T22:00:01.751Z,84.17
2017-12-23T22:02:29.359Z,85.67
2017-12-23T22:04:56.885Z,85.58
2017-12-23T22:07:24.424Z,84.67
2017-12-23T22:09:52.027Z,84.29
2017-12-23T22:12:19.571Z,83.83
2017-12-23T22:14:47.151Z,84.13
2017-12-23T22:17:14.709Z,84.53
2017-12-23T22:19:42.266Z,84.28
2017-12-23T22:22:09.829Z,85.79
2017-12-23T22:24:37.393Z,84.24
2017-12-23T22:27:04.918Z,84.24
2017-12-23T22:29:32.474Z,83.72
2017-12-23T22:31:59.992Z,83.44
2017-12-23T22:34:27.593Z,84.18
2017-12-23T22:36:55.138Z,82.37
2017-12-23T22:39:22.707Z,82.34
2017-12-23T22:41:50.253Z,83.62
2017-12-23T22:44:17.817Z,84.06
2017-12-23T22:46:45.366Z,84.27
2017-12-23T22:49:12.939Z,84.09
2017-12-23T22:51:40.479Z,84.71
2017-12-23T22:54:08.024Z,84.06
2017-12-23T22:56:35.558Z,84.11
2017-12-23T22:59:03.095Z,83.90
2017-12-23T23:01:30.666Z,84.63
2017-12-23T23:03:58.209Z,84.75
2017-12-23T23:06:25.740Z,84.93
2017-12-23T23:08:53.295Z,85.38
2017-12-23T23:11:20.893Z,84.71
2017-12-23T23:13:48.420Z,85.01
2017-12-23T23:16:15.994Z,84.87
2017-12-23T23:18:43.555Z,84.79
2017-12-23T23:21:11.095Z,83.72
2017-12-23T23:23:38.649Z,84.33
2017-12-23T23:26:06.184Z,83.98
2017-12-23T23:28:33.715Z,84.59
2017-12-23T23:31:01.388Z,84.34
2017-12-23T23:33:28.956Z,85.00
2017-12-23T23:35:56.491Z,84.14
2017-12-23T23:38:24.028Z,84.87
2017-12-23T23:40:51.559Z,83.97
2017-12-23T23:43:19.062Z,84.61
2017-12-23T23:45:46.604Z,84.67
2017-12-23T23:48:14.129Z,84.70
2017-12-23T23:50:41.650Z,84.06
2017-12-23T23:53:09.175Z,84.83
2017-12-23T23:55:36.688Z,85.03
2017-12-23T23:58:04.213Z,84.26
